Time;durP1;ratioP1;P1;durP2;ratioP2;P2;SDS_P1;SDS_P2;PMS_P1;PMS_P2;Temp;Humidity;BMP_temperature;BMP_pressure;BME280_temperature;BME280_humidity;BME280_pressure;Samples;Min_cycle;Max_cycle;Signal;HPM_P1;HPM_P2
2022/06/12 00:01:09;;;;;;;11.05;2.97;;;;;;;14.85;73.18;102063.53;3603049;39;20059;-64
2022/06/12 00:03:35;;;;;;;9.57;3.13;;;;;;;14.85;73.37;102056.28;3602071;39;20051;-63
2022/06/12 00:06:03;;;;;;;9.02;3.53;;;;;;;14.82;74.27;102055.59;3601732;39;20105;-63
2022/06/12 00:08:34;;;;;;;8.73;3.30;;;;;;;14.80;75.02;102052.09;3600684;39;20047;-63
2022/06/12 00:11:04;;;;;;;9.85;3.42;;;;;;;14.77;75.13;102050.44;3599201;39;20460;-63
2022/06/12 00:13:36;;;;;;;13.90;3.90;;;;;;;14.77;74.28;102057.69;3600662;39;20047;-63
2022/06/12 00:16:04;;;;;;;10.73;4.00;;;;;;;14.75;74.55;102055.09;3600704;39;20361;-63
2022/06/12 00:18:30;;;;;;;12.45;3.45;;;;;;;14.70;74.54;102056.34;3599267;39;20095;-64
2022/06/12 00:21:11;;;;;;;12.23;3.72;;;;;;;14.67;73.98;102045.69;3599863;39;20318;-64
2022/06/12 00:24:05;;;;;;;14.05;4.65;;;;;;;14.67;73.34;102045.69;3600697;39;20052;-63
2022/06/12 00:26:41;;;;;;;10.80;3.65;;;;;;;14.60;73.61;102046.03;3598471;39;20055;-64
2022/06/12 00:29:24;;;;;;;7.65;3.55;;;;;;;14.63;73.36;102050.41;3598683;39;20078;-63
2022/06/12 00:31:56;;;;;;;12.50;4.33;;;;;;;14.60;73.69;102047.88;3600781;39;20667;-63
2022/06/12 00:34:29;;;;;;;16.20;4.32;;;;;;;14.54;74.01;102049.13;3604522;39;20257;-63
2022/06/12 00:36:56;;;;;;;9.50;3.70;;;;;;;14.51;73.93;102046.59;3603114;39;20061;-63
2022/06/12 00:39:23;;;;;;;12.05;3.88;;;;;;;14.45;73.91;102046.91;3602269;39;20043;-64
2022/06/12 00:41:54;;;;;;;14.73;4.15;;;;;;;14.42;73.73;102049.78;3600032;39;20055;-64
2022/06/12 00:44:27;;;;;;;10.45;3.80;;;;;;;14.38;73.94;102050.94;3602420;39;20056;-63
2022/06/12 00:47:07;;;;;;;12.93;4.13;;;;;;;14.34;73.82;102044.84;3602498;39;20051;-63
2022/06/12 00:49:48;;;;;;;11.48;4.45;;;;;;;14.32;74.04;102046.75;3601758;39;20066;-64
2022/06/12 00:52:23;;;;;;;11.20;4.38;;;;;;;14.29;74.24;102048.78;3602252;39;20360;-63
2022/06/12 00:54:58;;;;;;;10.82;4.22;;;;;;;14.29;74.18;102056.88;3602301;39;20173;-64
2022/06/12 00:57:28;;;;;;;11.57;4.03;;;;;;;14.26;74.32;102059.78;3600231;39;20054;-64
2022/06/12 01:00:01;;;;;;;10.93;3.88;;;;;;;14.22;74.22;102056.38;3604131;39;20054;-63
2022/06/12 01:02:32;;;;;;;9.85;3.85;;;;;;;14.17;74.51;102059.31;3606894;39;20055;-63
2022/06/12 01:07:57;;;;;;;11.85;4.05;;;;;;;14.12;74.05;102050.63;3602396;39;20084;-64
2022/06/12 01:10:28;;;;;;;10.65;3.97;;;;;;;14.10;74.36;102052.53;3603140;39;20066;-63
2022/06/12 01:13:10;;;;;;;10.15;3.80;;;;;;;14.09;73.83;102047.22;3604602;39;20067;-63
2022/06/12 01:15:53;;;;;;;9.57;3.67;;;;;;;13.98;73.57;102037.00;3603676;39;20452;-63
2022/06/12 01:18:27;;;;;;;10.50;3.88;;;;;;;14.01;73.97;102053.06;3601772;39;20063;-63
2022/06/12 01:21:42;;;;;;;12.63;4.43;;;;;;;13.99;73.98;102052.28;3601641;39;20051;-63
2022/06/12 01:24:54;;;;;;;14.55;4.10;;;;;;;13.96;73.60;102055.16;3603196;39;20523;-63
2022/06/12 01:27:37;;;;;;;9.35;3.92;;;;;;;13.83;74.39;102033.34;3603664;39;20050;-63
2022/06/12 01:30:19;;;;;;;10.70;3.92;;;;;;;13.90;74.38;102056.38;3601098;39;20050;-63
2022/06/12 01:33:28;;;;;;;12.15;4.05;;;;;;;13.85;74.38;102052.16;3601932;39;20062;-63
2022/06/12 01:36:12;;;;;;;10.27;3.67;;;;;;;13.76;75.59;102053.56;3602077;39;20406;-63
2022/06/12 01:39:02;;;;;;;10.32;4.13;;;;;;;13.70;75.30;102049.38;3600729;39;20070;-63
2022/06/12 01:42:16;;;;;;;11.38;4.20;;;;;;;13.65;75.09;102045.19;3600034;39;20058;-63
2022/06/12 01:44:50;;;;;;;13.40;4.00;;;;;;;13.62;74.73;102035.41;3592149;39;20063;-63
2022/06/12 01:47:29;;;;;;;10.60;3.90;;;;;;;13.58;74.88;102039.25;3601595;39;20128;-63
2022/06/12 01:50:26;;;;;;;11.52;4.18;;;;;;;13.54;75.43;102039.47;3601784;39;20081;-63
2022/06/12 01:53:10;;;;;;;8.98;4.45;;;;;;;13.52;75.56;102033.31;3601755;39;20120;-63
2022/06/12 01:56:16;;;;;;;10.77;3.63;;;;;;;13.49;75.26;102041.59;3600825;39;20051;-63
2022/06/12 01:58:45;;;;;;;9.95;3.95;;;;;;;13.46;75.68;102035.38;3598966;39;20064;-64
2022/06/12 02:01:16;;;;;;;14.07;4.07;;;;;;;13.43;75.61;102040.09;3601555;39;20394;-63
2022/06/12 02:04:40;;;;;;;11.85;3.80;;;;;;;13.38;76.13;102034.03;3601079;39;20044;-64
2022/06/12 02:07:29;;;;;;;12.05;4.55;;;;;;;13.34;76.46;102032.47;3581528;39;20047;-64
2022/06/12 02:10:10;;;;;;;12.13;4.75;;;;;;;13.32;76.54;102037.97;3602388;39;20055;-64
2022/06/12 02:15:39;;;;;;;11.18;4.22;;;;;;;13.31;77.00;102043.44;3600488;39;20128;-63
2022/06/12 02:18:31;;;;;;;11.07;4.72;;;;;;;13.26;76.97;102043.72;3603408;39;20044;-63
2022/06/12 02:21:08;;;;;;;12.38;5.03;;;;;;;13.28;77.14;102051.72;3603124;39;20070;-63
2022/06/12 02:23:54;;;;;;;12.25;5.30;;;;;;;13.29;77.18;102048.03;3600119;39;20404;-63
2022/06/12 02:26:57;;;;;;;9.95;4.28;;;;;;;13.30;76.73;102047.09;3601328;39;20039;-63
2022/06/12 02:29:35;;;;;;;9.50;4.35;;;;;;;13.28;77.33;102054.41;3602975;39;20052;-62
2022/06/12 02:32:12;;;;;;;12.25;4.45;;;;;;;13.31;77.45;102047.00;3603781;39;20055;-62
2022/06/12 02:34:47;;;;;;;10.45;4.03;;;;;;;13.32;76.21;102034.38;3602069;39;20056;-63
2022/06/12 02:37:29;;;;;;;11.40;4.43;;;;;;;13.43;75.64;102040.09;3600631;39;20059;-61
2022/06/12 02:40:05;;;;;;;9.00;4.18;;;;;;;13.50;74.51;102036.09;3603392;39;20124;-62
2022/06/12 02:42:42;;;;;;;10.18;4.22;;;;;;;13.54;74.36;102034.97;3601961;39;20041;-63
2022/06/12 02:45:33;;;;;;;11.07;4.07;;;;;;;13.57;73.57;102025.81;3601777;39;20091;-62
2022/06/12 02:48:01;;;;;;;10.05;4.00;;;;;;;13.57;74.26;102032.06;3599814;39;20408;-62
2022/06/12 02:50:41;;;;;;;14.52;4.50;;;;;;;13.55;74.37;102028.63;3601728;39;20058;-63
2022/06/12 02:53:32;;;;;;;12.27;4.05;;;;;;;13.56;74.56;102027.66;3602295;39;20128;-63
2022/06/12 02:56:18;;;;;;;11.45;4.40;;;;;;;13.53;74.29;102022.41;3602989;39;20066;-62
2022/06/12 02:58:59;;;;;;;11.20;4.40;;;;;;;13.50;74.80;102027.13;3599416;39;20648;-63
2022/06/12 03:02:04;;;;;;;12.88;4.10;;;;;;;13.45;75.01;102022.84;3600206;39;20125;-63
2022/06/12 03:04:55;;;;;;;14.77;4.40;;;;;;;13.43;74.57;102022.03;3598715;39;20051;-61
2022/06/12 03:07:21;;;;;;;11.55;4.55;;;;;;;12.80;74.74;101910.28;3602211;39;20058;-61
2022/06/12 03:09:47;;;;;;;8.00;4.13;;;;;;;13.42;75.08;102036.50;3602353;39;20428;-61
2022/06/12 03:12:13;;;;;;;14.63;5.03;;;;;;;13.37;74.98;102030.47;3601286;39;20083;-61
2022/06/12 03:14:40;;;;;;;9.98;4.03;;;;;;;13.33;75.88;102026.22;3600305;39;20048;-61
2022/06/12 03:17:06;;;;;;;14.77;4.95;;;;;;;13.31;75.79;102029.94;3602218;39;20051;-61
2022/06/12 03:19:46;;;;;;;13.50;5.05;;;;;;;13.33;75.82;102033.44;3600893;39;20070;-61
2022/06/12 03:22:36;;;;;;;11.02;5.05;;;;;;;13.30;75.75;102037.19;3601172;39;20105;-61
2022/06/12 03:25:25;;;;;;;11.73;5.22;;;;;;;13.29;76.35;102038.13;3601711;39;20043;-61
2022/06/12 03:28:25;;;;;;;12.20;6.13;;;;;;;13.26;76.49;102032.91;3603750;39;20475;-61
2022/06/12 03:31:15;;;;;;;17.88;5.55;;;;;;;13.04;76.98;101989.94;3602017;39;20066;-61
2022/06/12 03:33:57;;;;;;;11.40;5.82;;;;;;;13.36;77.01;102028.75;3601238;39;20063;-61
2022/06/12 03:36:34;;;;;;;12.65;5.07;;;;;;;13.38;76.80;102037.66;3597555;39;20055;-61
2022/06/12 03:39:40;;;;;;;10.55;5.40;;;;;;;13.37;76.42;102032.31;3599533;39;20051;-60
2022/06/12 03:42:22;;;;;;;15.52;5.55;;;;;;;13.36;76.33;102033.28;3598335;39;20094;-60
2022/06/12 03:45:22;;;;;;;11.00;5.45;;;;;;;13.40;76.75;102042.94;3597552;39;20084;-60
2022/06/12 03:48:06;;;;;;;9.85;4.80;;;;;;;13.38;75.94;102025.94;3595955;39;20055;-61
2022/06/12 03:50:54;;;;;;;12.55;5.38;;;;;;;13.43;75.52;102034.69;3595848;39;20048;-61
2022/06/12 03:53:55;;;;;;;12.43;5.30;;;;;;;13.33;75.43;102028.91;3596370;39;20091;-60
2022/06/12 04:00:04;;;;;;;12.52;5.65;;;;;;;13.38;75.01;102036.75;3597002;39;20088;-61
2022/06/12 04:02:35;;;;;;;13.88;4.90;;;;;;;13.41;75.31;102040.16;3595970;39;20058;-61
2022/06/12 04:05:06;;;;;;;10.93;5.15;;;;;;;13.43;74.88;102040.94;3598370;39;20055;-62
2022/06/12 04:07:43;;;;;;;10.68;4.82;;;;;;;13.44;74.38;102036.41;3597980;39;20051;-61
2022/06/12 04:10:18;;;;;;;12.13;4.97;;;;;;;13.49;73.90;102045.16;3596559;39;20058;-61
2022/06/12 04:12:45;;;;;;;9.55;4.82;;;;;;;13.50;74.23;102030.69;3596927;39;20063;-60
2022/06/12 04:15:39;;;;;;;10.35;5.00;;;;;;;13.60;73.68;102036.44;3599597;39;20059;-61
2022/06/12 04:18:05;;;;;;;;;;;;;;;13.64;73.05;102038.91;3602170;39;20059;-61
2022/06/12 04:20:59;;;;;;;10.68;4.40;;;;;;;13.66;73.08;102041.50;3603011;39;19967;-61
2022/06/12 04:23:43;;;;;;;13.10;4.90;;;;;;;13.67;73.04;102041.44;3589900;39;20070;-60
2022/06/12 04:26:41;;;;;;;13.38;5.22;;;;;;;13.68;72.38;102040.47;3597260;39;20051;-61
2022/06/12 04:29:24;;;;;;;11.70;4.15;;;;;;;13.72;72.50;102046.59;3597729;39;20387;-61
2022/06/12 04:31:55;;;;;;;10.57;4.55;;;;;;;13.74;72.15;102043.81;3598539;39;20364;-59
2022/06/12 04:34:29;;;;;;;10.00;4.72;;;;;;;13.78;72.11;102050.78;3602566;39;20043;-61
2022/06/12 04:37:09;;;;;;;8.77;4.85;;;;;;;13.80;72.18;102051.56;3600806;39;20666;-61
2022/06/12 04:39:35;;;;;;;8.27;3.92;;;;;;;13.85;70.90;102062.97;3599036;39;20069;-60
2022/06/12 04:42:03;;;;;;;11.80;4.63;;;;;;;13.87;71.33;102067.34;3597828;39;20047;-61
2022/06/12 04:44:29;;;;;;;8.73;4.32;;;;;;;13.92;70.57;102059.88;3596823;39;20063;-61
2022/06/12 04:46:59;;;;;;;6.75;3.97;;;;;;;13.96;70.20;102055.16;3598509;39;20047;-61
2022/06/12 04:49:29;;;;;;;8.32;4.03;;;;;;;14.01;69.93;102058.47;3599008;39;20051;-60
2022/06/12 04:51:59;;;;;;;10.93;4.25;;;;;;;14.04;69.79;102052.88;3600654;39;20109;-61
2022/06/12 04:54:27;;;;;;;14.52;5.03;;;;;;;14.08;69.81;102058.97;3603124;39;20124;-61
2022/06/12 04:56:53;;;;;;;10.48;4.40;;;;;;;14.09;69.63;102050.78;3599732;39;20105;-61
2022/06/12 04:59:20;;;;;;;7.90;4.35;;;;;;;14.08;69.99;102054.47;3601487;39;20055;-61
2022/06/12 05:01:48;;;;;;;10.60;4.20;;;;;;;14.00;69.94;102032.38;3600065;39;20055;-61
2022/06/12 05:04:16;;;;;;;13.07;4.65;;;;;;;14.12;70.03;102052.47;3600166;39;20059;-61
2022/06/12 05:06:44;;;;;;;11.07;4.38;;;;;;;14.14;69.92;102048.72;3599053;39;20381;-61
2022/06/12 05:09:13;;;;;;;8.50;4.78;;;;;;;14.19;70.05;102051.13;3597367;39;20186;-61
2022/06/12 05:11:41;;;;;;;8.05;4.05;;;;;;;14.26;69.58;102046.25;3597453;39;20044;-61
2022/06/12 05:14:08;;;;;;;13.88;4.65;;;;;;;14.30;69.80;102047.81;3598423;39;20391;-61
2022/06/12 05:16:43;;;;;;;10.38;4.45;;;;;;;14.35;69.59;102052.00;3599321;39;20094;-61
2022/06/12 05:19:16;;;;;;;11.23;4.55;;;;;;;14.36;69.46;102051.03;3601191;39;20067;-61
2022/06/12 05:21:42;;;;;;;11.50;4.55;;;;;;;14.40;69.66;102057.16;3600916;39;20063;-61
2022/06/12 05:24:09;;;;;;;9.27;4.32;;;;;;;14.39;69.36;102047.28;3598566;39;20054;-61
2022/06/12 05:26:37;;;;;;;8.85;4.40;;;;;;;14.52;69.51;102053.72;3598543;39;20047;-61
2022/06/12 05:29:08;;;;;;;12.43;4.85;;;;;;;14.58;69.67;102047.97;3599773;39;20059;-61
2022/06/12 05:31:34;;;;;;;13.70;4.38;;;;;;;14.66;69.75;102055.66;3597994;39;20056;-61
2022/06/12 05:34:00;;;;;;;12.85;5.47;;;;;;;14.74;69.53;102041.63;3598962;39;20055;-61
2022/06/12 05:36:26;;;;;;;13.07;4.40;;;;;;;14.82;69.85;102048.34;3600087;39;20059;-61
2022/06/12 05:38:52;;;;;;;11.43;4.30;;;;;;;14.92;69.20;102051.38;3600149;39;20063;-61
2022/06/12 05:41:20;;;;;;;12.90;4.75;;;;;;;15.00;69.10;102050.88;3600219;39;20064;-61
2022/06/12 05:43:46;;;;;;;14.93;5.13;;;;;;;15.00;68.79;102040.97;3600812;39;20120;-62
2022/06/12 05:46:16;;;;;;;15.80;5.35;;;;;;;15.21;68.78;102057.72;3599107;39;20065;-62
2022/06/12 05:48:44;;;;;;;13.68;5.35;;;;;;;15.32;68.29;102059.78;3600495;39;20047;-61
2022/06/12 05:51:15;;;;;;;15.43;4.82;;;;;;;15.41;67.97;102061.00;3597990;39;20065;-61
2022/06/12 05:53:41;;;;;;;16.85;5.00;;;;;;;15.49;68.02;102062.28;3598977;39;20044;-60
2022/06/12 05:56:15;;;;;;;15.35;5.10;;;;;;;15.54;67.47;102062.88;3600511;39;20132;-61
2022/06/12 05:58:42;;;;;;;15.68;4.90;;;;;;;15.63;67.48;102063.25;3600584;39;20035;-61
2022/06/12 06:01:12;;;;;;;14.63;4.85;;;;;;;15.73;67.36;102064.44;3598276;39;20063;-61
2022/06/12 06:03:39;;;;;;;16.95;4.75;;;;;;;15.85;67.18;102063.66;3600023;39;20055;-66
2022/06/12 06:06:09;;;;;;;15.52;6.82;;;;;;;15.96;67.45;102061.13;3598391;39;20120;-63
2022/06/12 06:08:35;;;;;;;14.68;5.03;;;;;;;16.12;67.24;102071.84;3597401;39;20052;-63
2022/06/12 06:11:01;;;;;;;15.90;4.70;;;;;;;16.25;66.75;102071.91;3598617;39;20059;-64
2022/06/12 06:13:27;;;;;;;12.10;4.75;;;;;;;16.43;66.82;102070.69;3601157;39;20374;-64
2022/06/12 06:15:52;;;;;;;17.80;4.97;;;;;;;16.66;66.05;102076.44;3600339;39;20058;-64
2022/06/12 06:18:20;;;;;;;17.35;4.25;;;;;;;16.81;65.93;102080.84;3599843;39;20139;-64
2022/06/12 06:20:47;;;;;;;16.75;4.95;;;;;;;16.74;65.87;102041.47;3597547;39;20379;-64
2022/06/12 06:23:14;;;;;;;16.38;4.68;;;;;;;17.11;65.33;102079.72;3595411;39;20058;-64
2022/06/12 06:25:42;;;;;;;18.02;4.85;;;;;;;17.22;66.14;102078.94;3599332;39;20055;-63
2022/06/12 06:28:11;;;;;;;18.40;4.80;;;;;;;17.32;65.93;102075.50;3600632;39;20063;-64
2022/06/12 06:30:39;;;;;;;15.93;4.88;;;;;;;17.47;65.87;102067.22;3600593;39;20055;-64
2022/06/12 06:33:06;;;;;;;13.27;4.85;;;;;;;17.62;65.28;102077.00;3599921;39;20130;-64
2022/06/12 06:35:32;;;;;;;17.30;4.65;;;;;;;17.82;65.41;102078.31;3599669;39;20310;-66
2022/06/12 06:37:58;;;;;;;21.45;4.97;;;;;;;17.99;64.81;102074.38;3599115;39;20059;-64
2022/06/12 06:40:29;;;;;;;17.27;4.72;;;;;;;18.20;65.09;102078.22;3600017;39;20413;-65
2022/06/12 06:42:54;;;;;;;12.85;4.55;;;;;;;18.44;63.84;102074.66;3597358;39;20051;-64
2022/06/12 06:48:07;;;;;;;16.70;4.55;;;;;;;18.62;64.82;102065.13;3600548;39;20608;-63
2022/06/12 06:50:34;;;;;;;21.80;4.88;;;;;;;18.86;62.51;102080.59;3602166;39;20105;-63
2022/06/12 06:53:01;;;;;;;15.20;4.53;;;;;;;18.84;62.35;102058.03;3598916;39;20057;-63
2022/06/12 06:55:29;;;;;;;15.43;4.53;;;;;;;18.98;62.18;102085.09;3597402;39;20656;-64
2022/06/12 06:57:57;;;;;;;13.50;4.40;;;;;;;19.03;60.98;102088.34;3599238;39;20087;-64
2022/06/12 07:00:30;;;;;;;17.50;5.25;;;;;;;19.07;62.30;102092.56;3600236;39;20506;-64
2022/06/12 07:02:56;;;;;;;21.02;5.30;;;;;;;19.19;61.35;102079.84;3598852;39;20059;-64
2022/06/12 07:05:22;;;;;;;16.38;4.75;;;;;;;19.36;61.00;102090.28;3599536;39;20050;-65
2022/06/12 07:07:48;;;;;;;18.25;4.50;;;;;;;19.59;61.36;102091.16;3599662;39;20283;-64
2022/06/12 07:10:23;;;;;;;16.15;4.20;;;;;;;19.85;59.20;102085.50;3598635;39;20396;-64
2022/06/12 07:12:51;;;;;;;17.42;5.10;;;;;;;19.89;59.03;102090.59;3598585;39;20164;-64
2022/06/12 07:15:19;;;;;;;17.52;4.47;;;;;;;19.87;58.72;102083.53;3597559;39;20331;-64
2022/06/12 07:17:45;;;;;;;19.55;4.55;;;;;;;19.89;58.25;102092.47;3597288;39;20051;-64
2022/06/12 07:20:15;;;;;;;16.63;4.03;;;;;;;20.13;58.94;102086.84;3596844;39;20066;-65
2022/06/12 07:22:40;;;;;;;17.95;4.50;;;;;;;20.27;57.65;102085.72;3600467;39;20104;-64
2022/06/12 07:25:08;;;;;;;12.75;4.38;;;;;;;20.36;56.75;102084.94;3597456;39;20082;-64
2022/06/12 07:27:34;;;;;;;15.70;4.57;;;;;;;20.52;56.74;102088.19;3599369;39;20051;-64
2022/06/12 07:29:59;;;;;;;15.77;4.45;;;;;;;20.54;55.84;102097.09;3600460;39;20055;-62
2022/06/12 07:32:26;;;;;;;17.25;4.43;;;;;;;20.62;55.50;102097.31;3601852;39;20059;-62
2022/06/12 07:34:53;;;;;;;17.98;4.78;;;;;;;20.63;55.65;102099.06;3599538;39;20047;-62
2022/06/12 07:37:21;;;;;;;17.40;4.35;;;;;;;20.71;54.73;102094.78;3598342;39;20872;-62
2022/06/12 07:39:47;;;;;;;16.58;4.78;;;;;;;20.87;55.48;102092.53;3600418;39;20329;-65
2022/06/12 07:42:13;;;;;;;13.65;4.03;;;;;;;20.80;54.44;102103.06;3600341;39;20063;-65
2022/06/12 07:44:39;;;;;;;14.27;4.47;;;;;;;21.00;54.62;102095.94;3600601;39;20063;-64
2022/06/12 07:47:05;;;;;;;12.93;4.25;;;;;;;21.20;55.06;102093.34;3598460;39;20055;-65
2022/06/12 07:49:33;;;;;;;15.52;4.63;;;;;;;21.40;54.33;102091.63;3603731;39;20096;-65
2022/06/12 07:52:05;;;;;;;15.55;4.05;;;;;;;21.66;51.62;102103.00;3599167;39;20051;-65
2022/06/12 07:54:33;;;;;;;16.65;4.90;;;;;;;21.89;53.21;102087.28;3600643;39;20078;-64
2022/06/12 07:56:59;;;;;;;14.32;4.13;;;;;;;21.97;50.68;102095.66;3598304;39;20044;-64
2022/06/12 07:59:26;;;;;;;9.77;3.58;;;;;;;21.99;49.87;102099.13;3598631;39;20055;-67
2022/06/12 08:01:53;;;;;;;14.50;3.92;;;;;;;21.53;49.76;102004.72;3598422;39;20043;-65
2022/06/12 08:04:21;;;;;;;17.05;4.72;;;;;;;22.20;50.93;102097.22;3599435;39;20084;-65
2022/06/12 08:06:47;;;;;;;11.27;4.30;;;;;;;22.33;49.83;102096.97;3599347;39;20064;-63
2022/06/12 08:09:14;;;;;;;9.65;3.47;;;;;;;22.26;47.45;102087.56;3600808;39;20069;-64
2022/06/12 08:11:46;;;;;;;13.77;3.88;;;;;;;22.51;49.88;102094.38;3599459;39;20147;-63
2022/06/12 08:14:14;;;;;;;11.43;4.32;;;;;;;22.46;49.74;102097.56;3598796;39;20043;-63
2022/06/12 08:16:42;;;;;;;11.15;4.00;;;;;;;22.60;48.15;102093.53;3600153;39;20318;-63
2022/06/12 08:21:57;;;;;;;15.45;4.88;;;;;;;22.81;49.51;102090.66;3600029;39;20132;-64
2022/06/12 08:24:24;;;;;;;15.73;4.57;;;;;;;22.72;49.36;102088.78;3600554;39;20087;-66
2022/06/12 08:26:49;;;;;;;14.00;4.07;;;;;;;22.53;49.42;102088.78;3598993;39;20087;-66
2022/06/12 08:29:15;;;;;;;13.90;4.00;;;;;;;22.47;49.34;102088.31;3599908;39;20071;-65
2022/06/12 08:31:54;;;;;;;11.05;3.85;;;;;;;22.43;49.11;102092.38;3600396;39;20060;-66
2022/06/12 08:34:34;;;;;;;16.35;4.35;;;;;;;22.17;49.17;102088.38;3599170;39;20059;-66
2022/06/12 08:37:10;;;;;;;9.30;3.70;;;;;;;22.12;49.02;102098.88;3598633;39;20055;-66
2022/06/12 08:39:36;;;;;;;10.80;3.63;;;;;;;22.08;48.91;102097.44;3598507;39;20150;-65
2022/06/12 08:42:24;;;;;;;13.00;3.72;;;;;;;22.00;49.40;102084.41;3598032;39;20342;-66
2022/06/12 08:45:07;;;;;;;14.52;3.83;;;;;;;21.97;49.51;102085.56;3599219;39;20128;-66
2022/06/12 08:47:48;;;;;;;14.10;4.10;;;;;;;21.86;49.93;102091.16;3594792;39;20075;-65
2022/06/12 08:50:49;;;;;;;13.30;3.72;;;;;;;21.81;48.54;102092.56;3596556;39;20047;-65
2022/06/12 08:53:32;;;;;;;12.40;3.80;;;;;;;21.82;49.23;102086.97;3582435;39;20067;-66
2022/06/12 08:56:12;;;;;;;11.40;3.92;;;;;;;21.97;49.86;102082.81;3588559;39;20392;-66
2022/06/12 08:58:49;;;;;;;16.83;4.07;;;;;;;22.01;48.67;102076.09;3602021;39;20047;-65
2022/06/12 09:01:15;;;;;;;10.23;3.65;;;;;;;22.28;48.76;102077.31;3602046;39;20356;-66
2022/06/12 09:03:49;;;;;;;9.93;3.60;;;;;;;22.64;45.45;102077.66;3601113;39;20104;-63
2022/06/12 09:06:45;;;;;;;13.13;3.40;;;;;;;23.05;44.68;102070.19;3601701;39;20129;-65
2022/06/12 09:09:37;;;;;;;15.68;4.00;;;;;;;23.43;46.43;102072.00;3600325;39;20048;-64
2022/06/12 09:12:18;;;;;;;13.43;3.53;;;;;;;23.74;44.15;102069.03;3599669;39;20056;-65
2022/06/12 09:15:14;;;;;;;12.02;3.92;;;;;;;24.11;43.03;102068.16;3600527;39;20388;-65
2022/06/12 09:18:13;;;;;;;10.82;3.78;;;;;;;24.12;43.36;102067.97;3601318;39;20279;-65
2022/06/12 09:21:04;;;;;;;10.80;3.80;;;;;;;24.22;43.02;102063.28;3600276;39;20066;-66
2022/06/12 09:24:13;;;;;;;8.73;3.60;;;;;;;24.52;44.34;102061.25;3598622;39;20069;-64
2022/06/12 09:27:13;;;;;;;10.35;3.70;;;;;;;24.84;42.70;102059.84;3599191;39;20039;-65
2022/06/12 09:30:12;;;;;;;9.55;3.55;;;;;;;25.19;39.68;102061.69;3602705;39;20052;-65
2022/06/12 09:33:08;;;;;;;7.75;3.03;;;;;;;25.33;39.53;102060.25;3600513;39;20391;-65
2022/06/12 09:36:05;;;;;;;10.50;3.25;;;;;;;25.43;39.16;102061.00;3603256;39;20060;-65
2022/06/12 09:39:06;;;;;;;10.85;3.35;;;;;;;25.29;38.30;102070.72;3591115;39;20059;-65
2022/06/12 09:41:44;;;;;;;1907.07;402.45;;;;;;;25.31;38.21;102057.66;3605014;39;20128;-65
2022/06/12 09:44:47;;;;;;;43.30;7.25;;;;;;;25.17;37.77;102066.50;3605121;39;20398;-66
2022/06/12 09:47:46;;;;;;;78.53;11.55;;;;;;;25.35;39.38;102071.97;3605848;39;20060;-66
2022/06/12 09:51:03;;;;;;;13.23;3.45;;;;;;;25.56;37.26;102066.91;3604042;39;20052;-65
2022/06/12 09:53:39;;;;;;;5.53;2.80;;;;;;;25.57;38.55;102063.16;3595117;39;20503;-66
2022/06/12 09:56:22;;;;;;;14.13;4.43;;;;;;;25.41;38.82;102063.06;3602740;39;20475;-67
2022/06/12 09:59:16;;;;;;;;;;;;;;;25.17;41.22;102061.84;3602583;39;20063;-66
2022/06/12 10:01:48;;;;;;;25.08;7.03;;;;;;;25.14;40.53;102066.81;3600077;39;19932;-66
2022/06/12 10:05:01;;;;;;;14.55;4.50;;;;;;;24.90;39.37;102072.97;3605017;39;20148;-65
2022/06/12 10:07:42;;;;;;;7.50;3.30;;;;;;;24.75;40.04;102062.50;3602976;39;20046;-66
2022/06/12 10:10:27;;;;;;;7.28;2.85;;;;;;;24.73;40.51;102059.03;3601755;39;20052;-66
2022/06/12 10:13:04;;;;;;;12.52;4.03;;;;;;;24.49;40.44;102053.31;3598196;39;20095;-65
2022/06/12 10:15:44;;;;;;;11.18;3.65;;;;;;;24.36;40.74;102050.91;3604251;39;20081;-65
2022/06/12 10:18:27;;;;;;;10.57;3.38;;;;;;;24.17;41.83;102045.53;3601680;39;20044;-67
2022/06/12 10:21:09;;;;;;;7.65;3.40;;;;;;;24.22;40.15;102044.06;3600844;39;20067;-67
2022/06/12 10:23:35;;;;;;;9.57;3.45;;;;;;;24.24;41.54;102041.16;3604584;39;20071;-67
2022/06/12 10:26:15;;;;;;;9.32;3.45;;;;;;;24.22;40.21;102038.56;3605460;39;20071;-66
2022/06/12 10:28:42;;;;;;;8.65;3.38;;;;;;;24.11;41.53;102030.53;3599383;39;20112;-67
2022/06/12 10:31:10;;;;;;;12.18;4.10;;;;;;;23.98;41.31;102041.91;3599379;39;20056;-66
2022/06/12 10:33:42;;;;;;;10.07;3.55;;;;;;;23.82;42.53;102036.22;3599326;39;20393;-66
2022/06/12 10:36:33;;;;;;;11.23;3.75;;;;;;;23.71;43.83;102039.13;3599202;39;20112;-66
2022/06/12 10:39:10;;;;;;;9.52;3.28;;;;;;;23.53;43.34;102030.78;3601059;39;20053;-65
2022/06/12 10:41:52;;;;;;;9.77;3.22;;;;;;;23.60;46.02;102029.19;3596423;39;20125;-65
2022/06/12 10:44:29;;;;;;;8.95;3.17;;;;;;;24.16;44.94;102033.66;3597937;39;20059;-65
2022/06/12 10:47:13;;;;;;;9.50;2.97;;;;;;;24.36;40.93;102033.53;3599973;39;20054;-65
2022/06/12 10:49:39;;;;;;;10.35;3.13;;;;;;;24.15;42.64;102033.84;3601888;39;20085;-64
2022/06/12 10:52:22;;;;;;;10.90;3.30;;;;;;;23.89;42.21;102034.56;3603557;39;20043;-65
2022/06/12 10:54:51;;;;;;;12.10;3.22;;;;;;;23.67;42.15;102035.78;3601575;39;20063;-65
2022/06/12 10:58:01;;;;;;;10.80;3.20;;;;;;;23.69;42.45;102031.06;3602142;39;20058;-65
2022/06/12 11:00:39;;;;;;;9.70;2.85;;;;;;;23.55;42.31;102028.75;3603808;39;20055;-64
2022/06/12 11:03:33;;;;;;;6.55;2.80;;;;;;;23.40;42.54;102026.50;3603025;39;20486;-65
2022/06/12 11:06:31;;;;;;;8.60;2.95;;;;;;;23.83;42.28;102029.69;3600107;39;20047;-65
2022/06/12 11:09:21;;;;;;;10.18;2.72;;;;;;;23.79;41.52;102026.38;3586071;39;20067;-65
2022/06/12 11:12:24;;;;;;;10.77;2.90;;;;;;;23.78;41.44;102024.63;3598176;39;20043;-65
2022/06/12 11:14:59;;;;;;;10.20;2.80;;;;;;;24.28;41.94;102024.19;3599971;39;20128;-65
2022/06/12 11:17:36;;;;;;;5.95;2.90;;;;;;;24.49;39.44;102023.06;3599054;39;20039;-65
2022/06/12 11:20:32;;;;;;;11.80;2.55;;;;;;;24.97;40.12;102030.03;3597727;39;20060;-65
2022/06/12 11:23:17;;;;;;;8.05;3.40;;;;;;;25.07;38.31;102021.66;3598941;39;20059;-65
2022/06/12 11:26:32;;;;;;;8.43;3.00;;;;;;;24.73;39.82;102026.03;3600456;39;20051;-65
2022/06/12 11:29:35;;;;;;;9.18;3.08;;;;;;;24.39;39.86;102017.63;3597959;39;20085;-65
2022/06/12 11:32:32;;;;;;;8.00;2.50;;;;;;;24.09;39.93;102016.09;3598791;39;20359;-65
2022/06/12 11:35:26;;;;;;;6.88;2.70;;;;;;;23.88;40.70;102023.72;3599512;39;20355;-65
2022/06/12 11:38:18;;;;;;;8.18;2.50;;;;;;;23.68;39.80;102018.28;3600327;39;20056;-64
2022/06/12 11:40:49;;;;;;;9.38;3.17;;;;;;;23.72;41.87;102019.75;3602143;39;20058;-65
2022/06/12 11:43:45;;;;;;;7.20;2.65;;;;;;;24.12;40.30;102021.28;3603179;39;20047;-64
2022/06/12 11:46:56;;;;;;;9.57;2.80;;;;;;;24.15;39.75;101998.97;3602242;39;20067;-63
2022/06/12 11:49:56;;;;;;;6.82;2.85;;;;;;;23.92;39.78;102009.53;3592474;39;20132;-65
2022/06/12 11:53:04;;;;;;;8.25;2.95;;;;;;;24.17;39.63;102005.19;3590085;39;20047;-65
2022/06/12 11:55:59;;;;;;;5.68;2.42;;;;;;;24.79;40.06;102000.66;3599611;39;20063;-65
2022/06/12 11:59:12;;;;;;;8.88;2.58;;;;;;;25.32;38.19;101992.47;3599130;39;20080;-64
2022/06/12 12:01:56;;;;;;;6.05;2.35;;;;;;;25.96;37.13;101990.19;3595212;39;20055;-65
2022/06/12 12:04:41;;;;;;;10.55;2.92;;;;;;;26.59;37.44;101987.75;3598433;39;20364;-64
2022/06/12 12:07:56;;;;;;;11.18;2.83;;;;;;;26.80;33.30;101978.06;3597917;39;20054;-66
2022/06/12 12:10:30;;;;;;;7.07;2.47;;;;;;;26.60;34.97;101983.94;3599739;39;20065;-65
2022/06/12 12:13:14;;;;;;;6.68;2.42;;;;;;;26.61;34.76;101984.81;3597842;39;20062;-65
2022/06/12 12:15:50;;;;;;;6.75;2.30;;;;;;;26.43;34.52;101982.19;3598848;39;20096;-65
2022/06/12 12:18:57;;;;;;;7.22;2.70;;;;;;;26.06;35.99;101977.97;3600013;39;20082;-66
2022/06/12 12:21:43;;;;;;;6.35;2.33;;;;;;;26.13;34.86;101976.28;3588625;39;20067;-65
2022/06/12 12:24:18;;;;;;;5.38;2.17;;;;;;;26.11;35.19;101981.09;3599366;39;20052;-65
2022/06/12 12:26:47;;;;;;;6.97;2.50;;;;;;;26.20;34.93;101976.47;3590545;39;20054;-65